Time;durP1;ratioP1;P1;durP2;ratioP2;P2;SDS_P1;SDS_P2;PMS_P1;PMS_P2;Temp;Humidity;BMP_temperature;BMP_pressure;BME280_temperature;BME280_humidity;BME280_pressure;Samples;Min_cycle;Max_cycle;Signal;HPM_P1;HPM_P2
2022/12/30 00:00:41;;;;;;;3.25;0.47;;;;;;;;;;5034179;28;20021;-65
2022/12/30 00:03:07;;;;;;;3.47;0.60;;;;;;;;;;5034094;28;20401;-65
2022/12/30 00:05:32;;;;;;;2.10;0.50;;;;;;;;;;5034163;28;20033;-65
2022/12/30 00:07:57;;;;;;;3.83;0.60;;;;;;;;;;5034165;28;20017;-64
2022/12/30 00:10:22;;;;;;;3.83;0.70;;;;;;;;;;5033846;28;20059;-64
2022/12/30 00:35:04;;;;;;;3.47;0.65;;;;;;;;;;5033551;28;20048;-63
2022/12/30 00:37:29;;;;;;;2.47;0.70;;;;;;;;;;5033452;28;20414;-63
2022/12/30 00:39:54;;;;;;;5.00;0.60;;;;;;;;;;5033503;28;20018;-64
2022/12/30 00:45:04;;;;;;;5.90;0.80;;;;;;;;;;5030219;28;20087;-64
2022/12/30 00:47:29;;;;;;;4.13;0.65;;;;;;;;;;5033503;28;20030;-64
2022/12/30 00:58:05;;;;;;;3.85;0.60;;;;;;;;;;5033525;28;20024;-64
2022/12/30 01:00:30;;;;;;;5.10;0.73;;;;;;;;;;5033057;28;20384;-64
2022/12/30 01:02:56;;;;;;;4.63;0.60;;;;;;;;;;5032374;28;20083;-65
2022/12/30 01:05:21;;;;;;;4.97;0.80;;;;;;;;;;5032791;28;20025;-65
2022/12/30 01:07:46;;;;;;;4.55;0.75;;;;;;;;;;5031682;28;20440;-65
2022/12/30 01:10:12;;;;;;;3.63;0.70;;;;;;;;;;5033051;28;20022;-65
2022/12/30 01:12:37;;;;;;;4.63;0.70;;;;;;;;;;5032383;28;20488;-66
2022/12/30 01:15:02;;;;;;;3.73;0.60;;;;;;;;;;5032989;28;20053;-65
2022/12/30 01:17:29;;;;;;;3.70;0.70;;;;;;;;;;5033056;28;20010;-64
2022/12/30 01:19:54;;;;;;;2.53;0.60;;;;;;;;;;5032648;28;20075;-64
2022/12/30 01:22:20;;;;;;;5.85;0.60;;;;;;;;;;5032340;28;20029;-64
2022/12/30 01:24:45;;;;;;;5.10;0.95;;;;;;;;;;5032766;28;20469;-64
2022/12/30 01:27:10;;;;;;;3.33;0.80;;;;;;;;;;5032708;28;20077;-64
2022/12/30 01:29:36;;;;;;;3.97;0.80;;;;;;;;;;5032419;28;20477;-65
2022/12/30 01:32:22;;;;;;;5.22;0.70;;;;;;;;;;5032553;28;20116;-65
2022/12/30 01:34:47;;;;;;;5.55;0.57;;;;;;;;;;5032105;28;20033;-65
2022/12/30 01:37:13;;;;;;;3.25;0.63;;;;;;;;;;5032252;28;20028;-65
2022/12/30 01:39:38;;;;;;;4.20;0.70;;;;;;;;;;5032356;28;20018;-63
2022/12/30 01:42:09;;;;;;;3.70;0.70;;;;;;;;;;5032322;28;20025;-65
2022/12/30 01:44:53;;;;;;;4.95;0.65;;;;;;;;;;5032389;28;20032;-65
2022/12/30 01:47:18;;;;;;;3.55;0.63;;;;;;;;;;5032431;28;20048;-65
2022/12/30 01:49:45;;;;;;;5.47;0.75;;;;;;;;;;5032083;28;20026;-65
2022/12/30 01:52:11;;;;;;;2.95;0.57;;;;;;;;;;5031229;28;20465;-65
2022/12/30 01:54:37;;;;;;;3.65;0.57;;;;;;;;;;5031759;28;20041;-65
2022/12/30 01:57:06;;;;;;;3.17;0.53;;;;;;;;;;5032368;28;20014;-65
2022/12/30 01:59:31;;;;;;;2.25;0.52;;;;;;;;;;5031770;28;20079;-65
2022/12/30 02:01:56;;;;;;;3.43;0.70;;;;;;;;;;5031879;28;20025;-64
2022/12/30 02:04:24;;;;;;;3.80;0.70;;;;;;;;;;5031685;28;20514;-64
2022/12/30 02:06:55;;;;;;;5.10;0.75;;;;;;;;;;5031512;28;20481;-64
2022/12/30 02:09:20;;;;;;;6.25;0.90;;;;;;;;;;5031668;28;20022;-64
2022/12/30 02:11:46;;;;;;;2.63;0.60;;;;;;;;;;5032070;28;20099;-65
2022/12/30 02:14:11;;;;;;;4.00;0.60;;;;;;;;;;5031187;28;20033;-65
2022/12/30 02:16:43;;;;;;;5.20;0.80;;;;;;;;;;5031560;28;20032;-64
2022/12/30 02:19:31;;;;;;;4.40;0.70;;;;;;;;;;5031710;28;20017;-64
2022/12/30 02:22:22;;;;;;;4.20;0.70;;;;;;;;;;5031561;28;20036;-64
2022/12/30 02:24:50;;;;;;;5.03;0.68;;;;;;;;;;5031398;28;20496;-64
2022/12/30 02:27:21;;;;;;;4.70;0.73;;;;;;;;;;5031338;28;20029;-64
2022/12/30 02:30:02;;;;;;;5.53;0.82;;;;;;;;;;5031620;28;20032;-64
2022/12/30 02:32:35;;;;;;;6.38;0.85;;;;;;;;;;5030825;28;20022;-64
2022/12/30 02:35:19;;;;;;;7.20;0.80;;;;;;;;;;5031117;28;20392;-64
2022/12/30 02:37:58;;;;;;;6.97;0.93;;;;;;;;;;5031397;28;20057;-64
2022/12/30 02:44:36;;;;;;;4.82;0.90;;;;;;;;;;5031194;28;20391;-65
2022/12/30 02:46:02;;;;;;;4.20;0.60;;;;;;;;;;5031450;28;20037;-64
2022/12/30 02:48:30;;;;;;;4.07;0.68;;;;;;;;;;5031032;28;20036;-64
2022/12/30 02:53:39;;;;;;;5.57;0.90;;;;;;;;;;5028712;28;20439;-64
2022/12/30 02:56:05;;;;;;;3.37;0.57;;;;;;;;;;5029151;28;20029;-65
2022/12/30 02:58:32;;;;;;;5.50;0.98;;;;;;;;;;5030891;28;20433;-65
2022/12/30 03:04:25;;;;;;;7.25;0.90;;;;;;;;;;5030536;28;20024;-64
2022/12/30 03:06:55;;;;;;;4.78;0.80;;;;;;;;;;5030835;28;20029;-64
2022/12/30 03:09:39;;;;;;;6.88;0.95;;;;;;;;;;5030955;28;20116;-64
2022/12/30 03:12:04;;;;;;;3.25;0.60;;;;;;;;;;5030659;28;20025;-63
2022/12/30 03:14:30;;;;;;;5.93;0.70;;;;;;;;;;5028299;28;20022;-64
2022/12/30 03:16:58;;;;;;;5.43;0.80;;;;;;;;;;5030314;28;20436;-65
2022/12/30 03:19:25;;;;;;;6.45;1.13;;;;;;;;;;5030467;28;20025;-65
2022/12/30 03:21:53;;;;;;;5.05;0.90;;;;;;;;;;5030747;28;20018;-65
2022/12/30 03:27:06;;;;;;;6.18;0.90;;;;;;;;;;5030747;28;20025;-65
2022/12/30 03:29:34;;;;;;;4.60;0.75;;;;;;;;;;5030352;28;20420;-65
2022/12/30 03:31:59;;;;;;;7.60;1.27;;;;;;;;;;5030250;28;20446;-65
2022/12/30 03:34:26;;;;;;;4.68;0.82;;;;;;;;;;5030027;28;20100;-65
2022/12/30 03:36:53;;;;;;;4.57;0.68;;;;;;;;;;5030605;28;20021;-65
2022/12/30 03:39:21;;;;;;;4.80;0.90;;;;;;;;;;5030450;28;20400;-66
2022/12/30 03:41:48;;;;;;;5.32;0.80;;;;;;;;;;5030617;28;20036;-65
2022/12/30 03:44:13;;;;;;;4.47;0.70;;;;;;;;;;5029851;28;20013;-65
2022/12/30 03:46:40;;;;;;;6.67;0.63;;;;;;;;;;5030442;28;20018;-64
2022/12/30 03:49:05;;;;;;;6.18;1.13;;;;;;;;;;5030301;28;20427;-66
2022/12/30 03:51:30;;;;;;;4.13;0.70;;;;;;;;;;5030550;28;20451;-65
2022/12/30 03:53:56;;;;;;;2.78;0.60;;;;;;;;;;5029851;28;20032;-65
2022/12/30 03:56:21;;;;;;;4.93;0.70;;;;;;;;;;5029942;28;20024;-65
2022/12/30 03:58:46;;;;;;;3.92;0.57;;;;;;;;;;5030469;28;20126;-65
2022/12/30 04:01:11;;;;;;;7.75;0.98;;;;;;;;;;5030094;28;20029;-65
2022/12/30 04:03:36;;;;;;;6.23;0.80;;;;;;;;;;5029502;28;20026;-65
2022/12/30 04:06:01;;;;;;;7.23;0.80;;;;;;;;;;5030571;28;20491;-65
2022/12/30 04:08:26;;;;;;;6.10;0.90;;;;;;;;;;5030040;28;20026;-65
2022/12/30 04:10:52;;;;;;;6.68;0.98;;;;;;;;;;5030349;28;20104;-65
2022/12/30 04:13:17;;;;;;;7.47;0.90;;;;;;;;;;5029787;28;20439;-65
2022/12/30 04:15:46;;;;;;;4.93;1.00;;;;;;;;;;5030156;28;20026;-65
2022/12/30 04:18:11;;;;;;;5.03;0.80;;;;;;;;;;5029867;28;20492;-65
2022/12/30 04:20:36;;;;;;;3.85;0.75;;;;;;;;;;5029950;28;20049;-65
2022/12/30 04:23:01;;;;;;;4.18;0.68;;;;;;;;;;5030025;28;20434;-65
2022/12/30 04:25:26;;;;;;;6.15;0.90;;;;;;;;;;5029814;28;20026;-65
2022/12/30 04:27:52;;;;;;;4.47;0.73;;;;;;;;;;5030360;28;20029;-65
2022/12/30 04:30:17;;;;;;;4.70;0.80;;;;;;;;;;5033730;28;20412;-65
2022/12/30 04:32:42;;;;;;;7.40;0.80;;;;;;;;;;5032886;28;20424;-65
2022/12/30 04:35:08;;;;;;;4.13;0.85;;;;;;;;;;5033290;28;20056;-65
2022/12/30 04:37:33;;;;;;;4.40;0.87;;;;;;;;;;5033575;28;20584;-69
2022/12/30 04:39:58;;;;;;;4.53;0.80;;;;;;;;;;5033616;28;21002;-65
2022/12/30 04:42:23;;;;;;;4.78;0.70;;;;;;;;;;5033424;28;20025;-65
2022/12/30 04:44:48;;;;;;;4.30;0.68;;;;;;;;;;5033208;28;20099;-64
2022/12/30 04:47:13;;;;;;;6.15;1.05;;;;;;;;;;5033223;28;20069;-64
2022/12/30 04:49:38;;;;;;;3.58;0.60;;;;;;;;;;5033374;28;20029;-65
2022/12/30 04:52:03;;;;;;;4.35;0.95;;;;;;;;;;5033469;28;20084;-64
2022/12/30 04:54:29;;;;;;;5.83;0.60;;;;;;;;;;5031048;28;20052;-64
2022/12/30 04:56:54;;;;;;;6.22;0.70;;;;;;;;;;5033132;28;20026;-64
2022/12/30 04:59:19;;;;;;;4.60;0.77;;;;;;;;;;5033196;28;20059;-65
2022/12/30 05:01:44;;;;;;;7.07;0.97;;;;;;;;;;5033183;28;20025;-64
2022/12/30 05:04:10;;;;;;;6.40;0.70;;;;;;;;;;5032906;28;20076;-65
2022/12/30 05:06:35;;;;;;;4.50;0.70;;;;;;;;;;5033022;28;20021;-65
2022/12/30 05:09:00;;;;;;;4.65;0.90;;;;;;;;;;5033025;28;20683;-65
2022/12/30 05:11:25;;;;;;;5.03;0.70;;;;;;;;;;5033038;28;20020;-64
2022/12/30 05:13:50;;;;;;;6.57;1.00;;;;;;;;;;5032154;28;20076;-64
2022/12/30 05:16:16;;;;;;;4.60;0.77;;;;;;;;;;5032678;28;20490;-64
2022/12/30 05:18:41;;;;;;;8.43;1.27;;;;;;;;;;5032512;28;20465;-65
2022/12/30 05:21:06;;;;;;;5.13;0.90;;;;;;;;;;5033060;28;20037;-64
2022/12/30 05:26:15;;;;;;;4.35;0.90;;;;;;;;;;5032770;28;20443;-64
2022/12/30 05:28:41;;;;;;;4.30;0.73;;;;;;;;;;5032524;28;20026;-64
2022/12/30 05:31:06;;;;;;;5.50;1.00;;;;;;;;;;5032672;28;20037;-65
2022/12/30 05:33:31;;;;;;;4.17;0.87;;;;;;;;;;5032275;28;20067;-64
2022/12/30 05:35:57;;;;;;;5.00;0.80;;;;;;;;;;5032520;28;20033;-64
2022/12/30 05:38:22;;;;;;;3.17;0.63;;;;;;;;;;5032382;28;20071;-64
2022/12/30 05:40:47;;;;;;;3.57;0.93;;;;;;;;;;5032035;28;20063;-64
2022/12/30 05:43:12;;;;;;;5.80;0.70;;;;;;;;;;5032098;28;20018;-64
2022/12/30 05:45:37;;;;;;;8.10;1.05;;;;;;;;;;5031617;28;20086;-64
2022/12/30 05:48:02;;;;;;;5.35;1.10;;;;;;;;;;5032293;28;20065;-64
2022/12/30 05:50:28;;;;;;;4.40;0.70;;;;;;;;;;5032110;28;20026;-65
2022/12/30 05:52:53;;;;;;;4.03;0.68;;;;;;;;;;5032146;28;20432;-64
2022/12/30 05:55:18;;;;;;;4.47;1.00;;;;;;;;;;5031904;28;20032;-64
2022/12/30 05:57:43;;;;;;;6.15;1.00;;;;;;;;;;5032294;28;20022;-65
2022/12/30 06:00:08;;;;;;;4.30;0.80;;;;;;;;;;5032030;28;20058;-65
2022/12/30 06:02:34;;;;;;;4.90;0.82;;;;;;;;;;5031622;28;20036;-64
2022/12/30 06:04:59;;;;;;;7.30;0.95;;;;;;;;;;5031632;28;20021;-65
2022/12/30 06:07:24;;;;;;;5.27;1.00;;;;;;;;;;5031658;28;20032;-65
2022/12/30 06:09:49;;;;;;;4.80;1.00;;;;;;;;;;5032229;28;20025;-64
2022/12/30 06:12:14;;;;;;;5.65;0.90;;;;;;;;;;5031449;28;20028;-64
2022/12/30 06:14:39;;;;;;;6.67;0.90;;;;;;;;;;5031381;28;20022;-64
2022/12/30 06:17:04;;;;;;;4.80;0.80;;;;;;;;;;5031803;28;20017;-64
2022/12/30 06:19:30;;;;;;;6.90;1.10;;;;;;;;;;5031550;28;20439;-65
2022/12/30 06:21:55;;;;;;;7.05;0.90;;;;;;;;;;5031543;28;20021;-65
2022/12/30 06:24:20;;;;;;;7.07;1.00;;;;;;;;;;5031199;28;20072;-64
2022/12/30 06:26:45;;;;;;;7.75;1.50;;;;;;;;;;5031739;28;20030;-65
2022/12/30 06:29:10;;;;;;;3.42;0.88;;;;;;;;;;5031738;28;20444;-65
2022/12/30 06:31:35;;;;;;;4.70;0.70;;;;;;;;;;5031267;28;20049;-64
2022/12/30 06:34:00;;;;;;;4.88;0.90;;;;;;;;;;5031116;28;20096;-64
2022/12/30 06:36:26;;;;;;;2.67;0.57;;;;;;;;;;5031125;28;20018;-65
2022/12/30 06:38:51;;;;;;;5.30;1.00;;;;;;;;;;5031586;28;20026;-64
2022/12/30 06:41:16;;;;;;;5.40;0.75;;;;;;;;;;5031229;28;20468;-65
2022/12/30 06:43:41;;;;;;;3.63;0.70;;;;;;;;;;5031055;28;20026;-64
2022/12/30 06:46:06;;;;;;;7.35;0.93;;;;;;;;;;5031041;28;20110;-64
2022/12/30 06:48:31;;;;;;;5.53;0.70;;;;;;;;;;5031395;28;20025;-64
2022/12/30 06:51:00;;;;;;;4.83;0.70;;;;;;;;;;5031186;28;20025;-65
2022/12/30 06:53:25;;;;;;;5.40;1.00;;;;;;;;;;5030048;28;20025;-65
2022/12/30 06:55:50;;;;;;;4.33;0.80;;;;;;;;;;5030888;28;20456;-65
2022/12/30 06:58:15;;;;;;;5.30;1.00;;;;;;;;;;5031342;28;20013;-65
2022/12/30 07:00:40;;;;;;;3.45;0.98;;;;;;;;;;5030776;28;20361;-64
2022/12/30 07:03:06;;;;;;;5.50;0.70;;;;;;;;;;5030959;28;20180;-64
2022/12/30 07:05:31;;;;;;;5.03;0.70;;;;;;;;;;5030893;28;20075;-66
2022/12/30 07:07:56;;;;;;;6.25;0.90;;;;;;;;;;5030792;28;20108;-65
2022/12/30 07:10:21;;;;;;;5.40;0.80;;;;;;;;;;5030822;28;20029;-66
2022/12/30 07:12:46;;;;;;;4.47;0.80;;;;;;;;;;5030525;28;20480;-65
2022/12/30 07:15:12;;;;;;;7.40;1.00;;;;;;;;;;5030540;28;20476;-65
2022/12/30 07:17:37;;;;;;;6.35;1.20;;;;;;;;;;5030617;28;20108;-65
2022/12/30 07:20:02;;;;;;;6.13;1.63;;;;;;;;;;5031009;28;20017;-65
2022/12/30 07:22:27;;;;;;;5.93;0.93;;;;;;;;;;5030325;28;20025;-64
2022/12/30 07:24:52;;;;;;;5.40;0.73;;;;;;;;;;5030609;28;20527;-65
2022/12/30 07:27:17;;;;;;;3.88;0.80;;;;;;;;;;5030641;28;20503;-65
2022/12/30 07:29:43;;;;;;;4.37;0.73;;;;;;;;;;5030403;28;20090;-65
2022/12/30 07:32:08;;;;;;;4.13;0.95;;;;;;;;;;5030519;28;20026;-65
2022/12/30 07:34:34;;;;;;;5.88;0.85;;;;;;;;;;5030139;28;20431;-65
2022/12/30 07:37:00;;;;;;;5.05;0.80;;;;;;;;;;5030566;28;20033;-65
2022/12/30 07:39:25;;;;;;;7.35;0.95;;;;;;;;;;5030347;28;20025;-63
2022/12/30 07:41:50;;;;;;;5.27;0.90;;;;;;;;;;5030496;28;20025;-64
2022/12/30 07:44:15;;;;;;;4.70;0.80;;;;;;;;;;5029979;28;20029;-64
2022/12/30 07:46:40;;;;;;;9.40;1.10;;;;;;;;;;5026487;28;20039;-63
2022/12/30 07:49:06;;;;;;;4.97;0.90;;;;;;;;;;5030559;28;20037;-64
2022/12/30 07:51:31;;;;;;;5.32;1.20;;;;;;;;;;5030063;28;20457;-64
2022/12/30 07:53:57;;;;;;;4.10;0.82;;;;;;;;;;5030108;28;20113;-65
2022/12/30 07:56:22;;;;;;;5.40;1.10;;;;;;;;;;5029925;28;20080;-65
2022/12/30 07:58:47;;;;;;;6.75;1.00;;;;;;;;;;5030296;28;20025;-64
2022/12/30 08:01:13;;;;;;;6.43;1.00;;;;;;;;;;5030461;28;20033;-63
2022/12/30 08:03:38;;;;;;;8.20;0.93;;;;;;;;;;5031737;28;20591;-63
2022/12/30 08:06:04;;;;;;;5.90;1.13;;;;;;;;;;5033947;28;20465;-64
2022/12/30 08:08:29;;;;;;;5.85;1.02;;;;;;;;;;5033940;28;20121;-62
2022/12/30 08:10:55;;;;;;;7.60;1.02;;;;;;;;;;5034426;28;20112;-64
2022/12/30 08:13:20;;;;;;;5.53;1.10;;;;;;;;;;5033758;28;20053;-64
2022/12/30 08:15:45;;;;;;;6.82;1.25;;;;;;;;;;5033481;28;20084;-64
2022/12/30 08:18:11;;;;;;;4.30;0.80;;;;;;;;;;5034042;28;20018;-64
2022/12/30 08:20:36;;;;;;;6.18;1.23;;;;;;;;;;5033742;28;20057;-65
2022/12/30 08:23:01;;;;;;;6.13;1.00;;;;;;;;;;5033911;28;20021;-63
2022/12/30 08:25:26;;;;;;;5.55;0.95;;;;;;;;;;5033224;28;20029;-63
2022/12/30 08:27:51;;;;;;;5.22;0.70;;;;;;;;;;5033991;28;20052;-63
2022/12/30 08:30:16;;;;;;;5.55;1.10;;;;;;;;;;5033795;28;20068;-64
2022/12/30 08:32:42;;;;;;;12.45;1.15;;;;;;;;;;5033527;28;20029;-64
2022/12/30 08:35:07;;;;;;;6.95;0.98;;;;;;;;;;5031183;28;20388;-64
2022/12/30 08:37:33;;;;;;;7.97;0.90;;;;;;;;;;5033494;28;20029;-64
2022/12/30 08:39:59;;;;;;;7.93;0.98;;;;;;;;;;5033723;28;20092;-64
2022/12/30 08:42:24;;;;;;;6.07;1.10;;;;;;;;;;5033486;28;20105;-64
2022/12/30 08:44:49;;;;;;;7.07;1.08;;;;;;;;;;5033454;28;20029;-64
2022/12/30 08:47:14;;;;;;;6.57;1.00;;;;;;;;;;5033274;28;20021;-64
2022/12/30 08:49:39;;;;;;;6.33;1.00;;;;;;;;;;5033169;28;20456;-64
2022/12/30 08:52:04;;;;;;;4.28;0.80;;;;;;;;;;5033354;28;20476;-63
2022/12/30 08:54:30;;;;;;;3.77;0.80;;;;;;;;;;5032953;28;20116;-63
2022/12/30 08:56:55;;;;;;;4.37;1.13;;;;;;;;;;5033606;28;20013;-65
2022/12/30 08:59:20;;;;;;;7.18;1.05;;;;;;;;;;5033127;28;20071;-64
2022/12/30 09:01:45;;;;;;;6.57;1.30;;;;;;;;;;5033182;28;20107;-64
2022/12/30 09:04:11;;;;;;;5.40;1.00;;;;;;;;;;5033155;28;20460;-64
2022/12/30 09:06:38;;;;;;;4.80;0.90;;;;;;;;;;5032198;28;20025;-64
2022/12/30 09:09:03;;;;;;;;;;;;;;;;;;5033665;28;20315;-65
2022/12/30 09:11:29;;;;;;;7.47;1.10;;;;;;;;;;5033296;28;19971;-64
2022/12/30 09:13:55;;;;;;;4.82;0.93;;;;;;;;;;5032516;28;20144;-64
2022/12/30 09:16:22;;;;;;;5.72;1.00;;;;;;;;;;5031474;28;20120;-64
2022/12/30 09:18:48;;;;;;;5.30;1.05;;;;;;;;;;5032987;28;20396;-63
2022/12/30 09:21:13;;;;;;;5.40;1.10;;;;;;;;;;5032829;28;20033;-64
2022/12/30 09:23:38;;;;;;;8.20;1.13;;;;;;;;;;5032518;28;20013;-65
2022/12/30 09:26:03;;;;;;;5.37;1.10;;;;;;;;;;5032927;28;20564;-63
2022/12/30 09:28:28;;;;;;;7.72;1.15;;;;;;;;;;5032479;28;20079;-64
2022/12/30 09:30:54;;;;;;;7.43;1.30;;;;;;;;;;5032540;28;20114;-64
2022/12/30 09:33:19;;;;;;;6.13;1.23;;;;;;;;;;5032617;28;20033;-64
2022/12/30 09:35:44;;;;;;;9.30;1.30;;;;;;;;;;5032410;28;20463;-64
2022/12/30 09:38:09;;;;;;;6.82;1.60;;;;;;;;;;5032535;28;20029;-64
2022/12/30 09:40:46;;;;;;;5.97;1.10;;;;;;;;;;5032214;28;20052;-66
2022/12/30 09:43:21;;;;;;;4.82;0.88;;;;;;;;;;5032178;28;20438;-63
2022/12/30 09:45:53;;;;;;;5.28;1.00;;;;;;;;;;5031619;28;20064;-63
2022/12/30 09:48:21;;;;;;;6.95;1.20;;;;;;;;;;5032128;28;20037;-63
2022/12/30 09:50:52;;;;;;;8.32;1.27;;;;;;;;;;5032082;28;20472;-64
2022/12/30 09:53:21;;;;;;;6.45;1.02;;;;;;;;;;5032024;28;20029;-65
2022/12/30 09:55:50;;;;;;;9.65;1.33;;;;;;;;;;5031828;28;20025;-64
2022/12/30 09:58:21;;;;;;;9.50;1.63;;;;;;;;;;5032284;28;20021;-62
2022/12/30 10:00:47;;;;;;;5.55;1.00;;;;;;;;;;5031822;28;20034;-64
2022/12/30 10:03:17;;;;;;;7.82;1.02;;;;;;;;;;5031801;28;20021;-63
2022/12/30 10:05:45;;;;;;;4.70;1.00;;;;;;;;;;5031771;28;20047;-64
2022/12/30 10:08:16;;;;;;;4.78;0.95;;;;;;;;;;5032001;28;20384;-64
2022/12/30 10:10:44;;;;;;;6.50;0.93;;;;;;;;;;5031875;28;20021;-63
2022/12/30 10:13:17;;;;;;;5.55;1.10;;;;;;;;;;5031537;28;20110;-64
2022/12/30 10:15:51;;;;;;;8.13;1.20;;;;;;;;;;5030863;28;20114;-64
2022/12/30 10:18:21;;;;;;;5.90;1.02;;;;;;;;;;5031717;28;20084;-64
2022/12/30 10:20:53;;;;;;;5.97;1.05;;;;;;;;;;5031692;28;20018;-64
2022/12/30 10:23:18;;;;;;;6.50;1.00;;;;;;;;;;5031594;28;20017;-64
2022/12/30 10:25:49;;;;;;;7.10;1.10;;;;;;;;;;5031604;28;20028;-64
2022/12/30 10:28:20;;;;;;;7.63;1.27;;;;;;;;;;5031576;28;20083;-63
2022/12/30 10:30:47;;;;;;;9.95;0.95;;;;;;;;;;5031288;28;20066;-63
2022/12/30 10:33:18;;;;;;;7.57;1.42;;;;;;;;;;5031368;28;20086;-63
2022/12/30 10:35:43;;;;;;;7.45;1.50;;;;;;;;;;5031186;28;20021;-62
2022/12/30 10:38:10;;;;;;;6.63;1.13;;;;;;;;;;5031420;28;20020;-63
2022/12/30 10:40:41;;;;;;;8.00;1.05;;;;;;;;;;5030906;28;20021;-64
2022/12/30 10:43:06;;;;;;;7.93;1.10;;;;;;;;;;5031123;28;20484;-62
2022/12/30 10:45:41;;;;;;;7.05;1.10;;;;;;;;;;5030708;28;20503;-63
2022/12/30 10:48:27;;;;;;;5.65;0.90;;;;;;;;;;5031360;28;20025;-64
2022/12/30 10:50:52;;;;;;;7.78;1.30;;;;;;;;;;5031253;28;20027;-64
2022/12/30 10:53:20;;;;;;;6.33;1.23;;;;;;;;;;5031029;28;20025;-64
2022/12/30 10:55:56;;;;;;;5.07;1.30;;;;;;;;;;5030711;28;20021;-65
2022/12/30 10:58:24;;;;;;;6.93;1.25;;;;;;;;;;5031079;28;20039;-64
2022/12/30 11:00:49;;;;;;;8.40;1.30;;;;;;;;;;5030871;28;20020;-64
2022/12/30 11:03:25;;;;;;;7.83;1.40;;;;;;;;;;5030786;28;20022;-64
2022/12/30 11:05:50;;;;;;;6.05;1.48;;;;;;;;;;5028550;28;20029;-65
2022/12/30 11:08:20;;;;;;;4.28;0.82;;;;;;;;;;5030688;28;20036;-65
2022/12/30 11:11:04;;;;;;;4.88;1.10;;;;;;;;;;5030495;28;20057;-65
2022/12/30 11:16:15;;;;;;;4.65;0.75;;;;;;;;;;5030557;28;20036;-64
2022/12/30 11:18:43;;;;;;;4.82;1.00;;;;;;;;;;5030550;28;20431;-65
2022/12/30 11:21:09;;;;;;;5.93;1.20;;;;;;;;;;5030575;28;20101;-65
2022/12/30 11:23:35;;;;;;;5.22;1.10;;;;;;;;;;5030455;28;20104;-65
2022/12/30 11:26:02;;;;;;;4.15;0.85;;;;;;;;;;5030492;28;20032;-65
2022/12/30 11:28:27;;;;;;;;;;;;;;;;;;5030969;28;20031;-66
2022/12/30 11:30:52;;;;;;;5.10;0.75;;;;;;;;;;5030473;28;19909;-65
2022/12/30 11:33:19;;;;;;;5.70;1.10;;;;;;;;;;5030507;28;20029;-64
2022/12/30 11:35:48;;;;;;;4.63;0.80;;;;;;;;;;5030094;28;20021;-66
2022/12/30 11:38:33;;;;;;;4.88;0.98;;;;;;;;;;5029775;28;20088;-64
2022/12/30 11:41:18;;;;;;;7.45;0.93;;;;;;;;;;5030467;28;20018;-66
2022/12/30 11:43:43;;;;;;;4.80;0.90;;;;;;;;;;5030199;28;20408;-65
2022/12/30 11:46:10;;;;;;;4.70;0.80;;;;;;;;;;5030290;28;20022;-65
2022/12/30 11:48:37;;;;;;;5.88;1.05;;;;;;;;;;5030166;28;20045;-65
2022/12/30 11:51:04;;;;;;;6.10;1.10;;;;;;;;;;5030546;28;20017;-65
2022/12/30 11:53:31;;;;;;;5.43;0.80;;;;;;;;;;5030152;28;20021;-65
2022/12/30 11:55:57;;;;;;;6.60;1.25;;;;;;;;;;5029995;28;20033;-64
2022/12/30 11:58:22;;;;;;;4.68;0.80;;;;;;;;;;5030431;28;20020;-65
2022/12/30 12:00:55;;;;;;;3.87;0.80;;;;;;;;;;5030077;28;20021;-65
2022/12/30 12:03:21;;;;;;;5.07;0.88;;;;;;;;;;5030204;28;20108;-65
2022/12/30 12:05:46;;;;;;;6.93;0.90;;;;;;;;;;5029732;28;20095;-65
2022/12/30 12:08:19;;;;;;;5.30;1.00;;;;;;;;;;5028744;28;20455;-66
2022/12/30 12:10:51;;;;;;;4.45;0.70;;;;;;;;;;5029965;28;20432;-65
2022/12/30 12:13:23;;;;;;;4.70;1.17;;;;;;;;;;5029850;28;20052;-66
2022/12/30 12:15:53;;;;;;;5.60;1.27;;;;;;;;;;5029888;28;20022;-66
2022/12/30 12:18:29;;;;;;;5.72;1.10;;;;;;;;;;5030462;28;20371;-65
2022/12/30 12:20:54;;;;;;;5.47;1.20;;;;;;;;;;5030016;28;20380;-66
2022/12/30 12:23:26;;;;;;;6.10;1.20;;;;;;;;;;5030056;28;20419;-65
2022/12/30 12:26:03;;;;;;;6.25;1.20;;;;;;;;;;5029951;28;20025;-65
2022/12/30 12:28:29;;;;;;;5.45;1.27;;;;;;;;;;5030421;28;20029;-66
2022/12/30 12:31:29;;;;;;;6.18;1.20;;;;;;;;;;5029533;28;20091;-66
2022/12/30 12:34:17;;;;;;;5.35;1.15;;;;;;;;;;5007544;28;20022;-66
2022/12/30 12:36:46;;;;;;;6.15;1.17;;;;;;;;;;5021824;28;20116;-66
2022/12/30 12:39:13;;;;;;;6.80;1.38;;;;;;;;;;5030162;28;20373;-66
2022/12/30 12:41:51;;;;;;;8.18;1.30;;;;;;;;;;5029627;28;20029;-66
2022/12/30 12:44:25;;;;;;;7.20;1.30;;;;;;;;;;5030009;28;20021;-66
2022/12/30 12:47:01;;;;;;;7.22;1.27;;;;;;;;;;5029880;28;20014;-66
2022/12/30 12:49:35;;;;;;;4.70;1.30;;;;;;;;;;5029957;28;20079;-66
2022/12/30 12:52:15;;;;;;;6.35;1.75;;;;;;;;;;5033399;28;20397;-66
2022/12/30 12:54:53;;;;;;;6.15;1.83;;;;;;;;;;5033153;28;20155;-65
2022/12/30 12:57:21;;;;;;;6.88;1.20;;;;;;;;;;5030942;28;20106;-64
2022/12/30 13:00:07;;;;;;;6.57;1.50;;;;;;;;;;5033090;28;20025;-65
2022/12/30 13:02:35;;;;;;;4.57;1.13;;;;;;;;;;5033014;28;20017;-65
2022/12/30 13:05:07;;;;;;;5.72;1.30;;;;;;;;;;5033299;28;20021;-65
2022/12/30 13:07:35;;;;;;;5.93;1.50;;;;;;;;;;5032873;28;20025;-66
2022/12/30 13:10:19;;;;;;;9.30;1.88;;;;;;;;;;5033184;28;20030;-65
2022/12/30 13:13:03;;;;;;;9.57;2.42;;;;;;;;;;5032632;28;20049;-66
2022/12/30 13:15:40;;;;;;;8.88;2.45;;;;;;;;;;5032845;28;20102;-66
2022/12/30 13:18:10;;;;;;;10.23;3.35;;;;;;;;;;5033058;28;20044;-66
2022/12/30 13:20:44;;;;;;;10.23;3.25;;;;;;;;;;5032823;28;20022;-66
2022/12/30 13:23:10;;;;;;;6.85;3.15;;;;;;;;;;5032821;28;20048;-66
2022/12/30 13:25:44;;;;;;;11.27;3.15;;;;;;;;;;5032826;28;20631;-66
2022/12/30 13:28:16;;;;;;;5.32;2.75;;;;;;;;;;5032436;28;20013;-65
2022/12/30 13:30:41;;;;;;;;;;;;;;;;;;5033091;28;20021;-66
2022/12/30 13:33:17;;;;;;;6.35;1.98;;;;;;;;;;5032626;28;19974;-66
2022/12/30 13:35:51;;;;;;;7.75;2.10;;;;;;;;;;5032465;28;20507;-66
2022/12/30 13:38:24;;;;;;;6.65;1.90;;;;;;;;;;5032395;28;20018;-66
2022/12/30 13:40:55;;;;;;;5.18;1.58;;;;;;;;;;5032275;28;20025;-66
2022/12/30 13:43:21;;;;;;;6.03;1.70;;;;;;;;;;5032485;28;20025;-64
2022/12/30 13:45:47;;;;;;;6.45;1.75;;;;;;;;;;5032332;28;20025;-66
2022/12/30 13:48:12;;;;;;;6.25;1.70;;;;;;;;;;5031760;28;20043;-65
2022/12/30 13:50:39;;;;;;;6.07;1.83;;;;;;;;;;5032172;28;20025;-65
2022/12/30 13:53:05;;;;;;;6.50;2.28;;;;;;;;;;5032319;28;20060;-66
2022/12/30 13:55:36;;;;;;;6.03;2.17;;;;;;;;;;5032057;28;20021;-66
2022/12/30 13:58:01;;;;;;;6.38;1.70;;;;;;;;;;5032267;28;20009;-65
2022/12/30 14:00:28;;;;;;;6.63;1.83;;;;;;;;;;5032186;28;20128;-64
2022/12/30 14:02:53;;;;;;;8.15;1.70;;;;;;;;;;5031586;28;20028;-65
2022/12/30 14:05:51;;;;;;;8.82;1.90;;;;;;;;;;5032069;28;20279;-65
2022/12/30 14:08:16;;;;;;;9.18;1.50;;;;;;;;;;5019451;28;20034;-65
2022/12/30 14:10:43;;;;;;;6.88;1.40;;;;;;;;;;5031802;28;20028;-65
2022/12/30 14:13:11;;;;;;;5.18;1.30;;;;;;;;;;5031649;28;20057;-65
2022/12/30 14:15:36;;;;;;;5.47;1.23;;;;;;;;;;5031732;28;20022;-65
2022/12/30 14:18:07;;;;;;;5.43;1.27;;;;;;;;;;5031767;28;20100;-65
2022/12/30 14:20:34;;;;;;;6.00;1.40;;;;;;;;;;5031638;28;20362;-65
2022/12/30 14:23:00;;;;;;;7.40;1.48;;;;;;;;;;5031872;28;20018;-66
2022/12/30 14:25:33;;;;;;;6.35;1.52;;;;;;;;;;5031793;28;20140;-65
2022/12/30 14:28:17;;;;;;;6.07;1.50;;;;;;;;;;5030943;28;20079;-66
2022/12/30 14:30:49;;;;;;;7.00;1.35;;;;;;;;;;5031351;28;20645;-65
2022/12/30 14:33:26;;;;;;;5.47;1.35;;;;;;;;;;5031259;28;20619;-65
2022/12/30 14:35:51;;;;;;;7.10;1.30;;;;;;;;;;5031118;28;20108;-66
2022/12/30 14:38:23;;;;;;;6.00;1.20;;;;;;;;;;5031325;28;20128;-66
2022/12/30 14:41:02;;;;;;;6.85;1.10;;;;;;;;;;5031172;28;20130;-66
2022/12/30 14:43:28;;;;;;;5.82;1.30;;;;;;;;;;5031167;28;20440;-66
2022/12/30 14:46:12;;;;;;;6.32;0.90;;;;;;;;;;5031529;28;20052;-65
2022/12/30 14:48:37;;;;;;;;;;;;;;;;;;5029551;28;20480;-66
2022/12/30 14:51:02;;;;;;;8.55;1.05;;;;;;;;;;5031178;28;20367;-66
2022/12/30 14:53:27;;;;;;;7.13;1.10;;;;;;;;;;5031058;28;20060;-65
2022/12/30 14:55:52;;;;;;;4.73;1.10;;;;;;;;;;5031008;28;20033;-66
2022/12/30 14:58:18;;;;;;;6.57;1.30;;;;;;;;;;5031230;28;20461;-64
2022/12/30 15:00:46;;;;;;;5.78;1.10;;;;;;;;;;5030975;28;20025;-66
2022/12/30 15:03:14;;;;;;;5.57;1.70;;;;;;;;;;5030859;28;20077;-65
2022/12/30 15:05:46;;;;;;;5.88;1.20;;;;;;;;;;5030786;28;20018;-65
2022/12/30 15:08:12;;;;;;;9.52;1.52;;;;;;;;;;5030443;28;20035;-65
2022/12/30 15:10:37;;;;;;;6.78;1.67;;;;;;;;;;5030518;28;20432;-66
2022/12/30 15:13:19;;;;;;;7.03;1.60;;;;;;;;;;5029977;28;20053;-65
2022/12/30 15:15:51;;;;;;;9.15;1.40;;;;;;;;;;5030466;28;20602;-65
2022/12/30 15:18:36;;;;;;;5.80;1.38;;;;;;;;;;5030407;28;20417;-66
2022/12/30 15:21:20;;;;;;;5.07;1.40;;;;;;;;;;5030822;28;20025;-65
2022/12/30 15:23:45;;;;;;;5.25;1.42;;;;;;;;;;5030344;28;20093;-65
2022/12/30 15:26:14;;;;;;;5.30;1.48;;;;;;;;;;5030977;28;20097;-65
2022/12/30 15:28:39;;;;;;;5.82;1.40;;;;;;;;;;5029676;28;20033;-65
2022/12/30 15:31:04;;;;;;;7.73;1.43;;;;;;;;;;5030617;28;20017;-66
2022/12/30 15:33:29;;;;;;;6.93;1.60;;;;;;;;;;5030937;28;20033;-65
2022/12/30 15:35:55;;;;;;;6.37;1.60;;;;;;;;;;5030389;28;20052;-65
2022/12/30 15:38:24;;;;;;;5.60;1.30;;;;;;;;;;5030421;28;20029;-65